Time;durP1;ratioP1;P1;durP2;ratioP2;P2;SDS_P1;SDS_P2;PMS_P1;PMS_P2;Temp;Humidity;BMP_temperature;BMP_pressure;BME280_temperature;BME280_humidity;BME280_pressure;Samples;Min_cycle;Max_cycle;Signal;HPM_P1;HPM_P2
2021/11/22 00:02:19;;;;;;;4.45;1.17;;;;;;;;;;5057855;28;20041;-90
2021/11/22 00:04:45;;;;;;;1.27;0.80;;;;;;;;;;5036476;28;20155;-90
2021/11/22 00:07:15;;;;;;;0.60;0.60;;;;;;;;;;5058453;28;20037;-89
2021/11/22 00:09:42;;;;;;;0.75;0.70;;;;;;;;;;5048541;28;20031;-90
2021/11/22 00:12:08;;;;;;;0.70;0.70;;;7.50;86.80;;;;;;5027238;28;20029;-89
2021/11/22 00:14:35;;;;;;;0.80;0.80;;;;;;;;;;5030226;28;20025;-88
2021/11/22 00:17:01;;;;;;;1.83;0.90;;;;;;;;;;5053003;28;20106;-90
2021/11/22 00:19:27;;;;;;;0.90;0.73;;;;;;;;;;5029787;28;20025;-89
2021/11/22 00:21:53;;;;;;;1.13;0.70;;;;;;;;;;5051115;28;20418;-90
2021/11/22 00:24:19;;;;;;;1.08;1.02;;;;;;;;;;5032526;28;20028;-89
2021/11/22 00:26:45;;;;;;;1.15;1.00;;;;;;;;;;5053263;28;20021;-88
2021/11/22 00:29:11;;;;;;;1.75;1.00;;;;;;;;;;5054874;28;20108;-89
2021/11/22 00:31:37;;;;;;;0.73;0.73;;;;;;;;;;5060091;28;20028;-89
2021/11/22 00:34:04;;;;;;;0.68;0.68;;;;;;;;;;5061681;28;20164;-90
2021/11/22 00:36:30;;;;;;;0.70;0.70;;;;;;;;;;5059407;28;20162;-87
2021/11/22 00:38:56;;;;;;;0.95;0.77;;;;;;;;;;5062934;28;20123;-90
2021/11/22 00:41:22;;;;;;;0.85;0.85;;;;;;;;;;5065292;28;20582;-89
2021/11/22 00:43:48;;;;;;;1.77;0.90;;;;;;;;;;5061163;28;20065;-90
2021/11/22 00:46:14;;;;;;;1.00;0.80;;;;;;;;;;5051527;28;20033;-89
2021/11/22 00:48:40;;;;;;;0.65;0.63;;;;;;;;;;5058843;28;20115;-90
2021/11/22 00:51:06;;;;;;;1.05;0.90;;;;;;;;;;5055599;28;20027;-90
2021/11/22 00:53:32;;;;;;;2.20;1.25;;;;;;;;;;5057653;28;20086;-88
2021/11/22 00:55:58;;;;;;;0.60;0.50;;;;;;;;;;5064099;28;20125;-91
2021/11/22 00:58:24;;;;;;;0.77;0.77;;;;;;;;;;5031775;28;20025;-88
2021/11/22 01:00:50;;;;;;;0.85;0.82;;;;;;;;;;5051756;28;20033;-89
2021/11/22 01:03:17;;;;;;;0.73;0.73;;;;;;;;;;5035313;28;20024;-88
2021/11/22 01:05:43;;;;;;;0.80;0.80;;;;;;;;;;5058056;28;20025;-89
2021/11/22 01:08:09;;;;;;;0.77;0.77;;;;;;;;;;5053323;28;20538;-89
2021/11/22 01:10:37;;;;;;;1.52;0.80;;;;;;;;;;5052847;28;20488;-88
2021/11/22 01:13:03;;;;;;;;;;;;;;;;;;5032748;28;20052;-88
2021/11/22 01:15:31;;;;;;;1.55;0.80;;;;;;;;;;5039075;28;19905;-89
2021/11/22 01:17:57;;;;;;;1.17;1.05;;;;;;;;;;5055994;28;20499;-88
2021/11/22 01:20:29;;;;;;;0.82;0.82;;;7.00;87.60;;;;;;5057291;28;20021;-89
2021/11/22 01:23:01;;;;;;;1.20;0.95;;;7.20;86.90;;;;;;5061610;28;20040;-88
2021/11/22 01:25:28;;;;;;;0.80;0.80;;;;;;;;;;5058296;28;20043;-89
2021/11/22 01:27:54;;;;;;;1.50;0.68;;;7.30;95.00;;;;;;5032595;28;20399;-88
2021/11/22 01:30:21;;;;;;;3.07;1.37;;;;;;;;;;5058024;28;20029;-87
2021/11/22 01:32:47;;;;;;;0.70;0.70;;;;;;;;;;5047944;28;20279;-89
2021/11/22 01:35:13;;;;;;;0.77;0.75;;;;;;;;;;5056081;28;20035;-89
2021/11/22 01:37:39;;;;;;;1.38;0.80;;;;;;;;;;5051184;28;20028;-89
2021/11/22 01:40:06;;;;;;;1.13;0.80;;;;;;;;;;5052501;28;20025;-90
2021/11/22 01:42:32;;;;;;;0.88;0.88;;;;;;;;;;5037120;28;20040;-88
2021/11/22 01:44:58;;;;;;;1.25;1.10;;;;;;;;;;5051990;28;20106;-88
2021/11/22 01:47:24;;;;;;;1.73;0.95;;;;;;;;;;5038835;28;20039;-89
2021/11/22 01:49:50;;;;;;;8.57;3.67;;;;;;;;;;5029441;28;20021;-87
2021/11/22 01:52:16;;;;;;;1.52;1.10;;;;;;;;;;5059098;28;20028;-88
2021/11/22 01:54:42;;;;;;;1.05;0.98;;;;;;;;;;5051458;28;20503;-89
2021/11/22 01:57:08;;;;;;;3.00;1.50;;;;;;;;;;5032707;28;20928;-88
2021/11/22 01:59:34;;;;;;;3.70;1.45;;;;;;;;;;5064763;28;20395;-89
2021/11/22 02:02:03;;;;;;;2.40;1.63;;;7.00;82.70;;;;;;5032071;28;20041;-88
2021/11/22 02:04:29;;;;;;;1.92;1.48;;;;;;;;;;5054401;28;20033;-89
2021/11/22 02:06:55;;;;;;;4.15;2.20;;;;;;;;;;5030730;28;20071;-88
2021/11/22 02:09:21;;;;;;;3.53;1.67;;;;;;;;;;5063780;28;20025;-89
2021/11/22 02:11:49;;;;;;;1.63;1.10;;;;;;;;;;5061664;28;20036;-88
2021/11/22 02:14:15;;;;;;;2.60;1.17;;;;;;;;;;5051449;28;20029;-89
2021/11/22 02:16:41;;;;;;;2.38;1.65;;;;;;;;;;5050009;28;20093;-90
2021/11/22 02:19:07;;;;;;;2.28;1.30;;;;;;;;;;5054280;28;20021;-88
2021/11/22 02:21:33;;;;;;;1.60;1.20;;;;;;;;;;5050627;28;20116;-88
2021/11/22 02:23:59;;;;;;;1.48;1.27;;;;;;;;;;5059170;28;20025;-90
2021/11/22 02:26:26;;;;;;;2.75;1.35;;;;;;;;;;5037501;28;20036;-88
2021/11/22 02:28:53;;;;;;;1.02;0.93;;;;;;;;;;5051354;28;20441;-87
2021/11/22 02:31:19;;;;;;;2.60;1.23;;;;;;;;;;5055150;28;20051;-89
2021/11/22 02:33:45;;;;;;;3.55;1.77;;;;;;;;;;5053035;28;20028;-88
2021/11/22 02:36:11;;;;;;;2.03;0.90;;;;;;;;;;5051064;28;20028;-90
2021/11/22 02:38:39;;;;;;;1.40;1.25;;;6.60;84.90;;;;;;5046422;28;20650;-88
2021/11/22 02:41:06;;;;;;;2.50;1.25;;;;;;;;;;5049683;28;20037;-89
2021/11/22 02:43:34;;;;;;;3.55;1.27;;;;;;;;;;5033998;28;20041;-89
2021/11/22 02:46:00;;;;;;;;;;;;;;;;;;5058067;28;20048;-89
2021/11/22 02:48:26;;;;;;;1.95;1.67;;;;;;;;;;5032422;28;19913;-89
2021/11/22 02:50:52;;;;;;;1.20;0.88;;;;;;;;;;5038915;28;20021;-88
2021/11/22 02:53:18;;;;;;;1.88;0.90;;;;;;;;;;5066678;28;20028;-88
2021/11/22 02:55:45;;;;;;;2.28;1.88;;;;;;;;;;5030858;28;20502;-87
2021/11/22 02:58:11;;;;;;;1.37;1.00;;;;;;;;;;5049852;28;20475;-89
2021/11/22 03:00:38;;;;;;;2.22;1.30;;;;;;;;;;5049935;28;20047;-88
2021/11/22 03:03:04;;;;;;;2.33;1.60;;;;;;;;;;5048595;28;20052;-88
2021/11/22 03:05:30;;;;;;;1.63;1.52;;;;;;;;;;5063399;28;20702;-90
2021/11/22 03:07:58;;;;;;;1.20;1.10;;;;;;;;;;5051568;28;20047;-89
2021/11/22 03:10:26;;;;;;;3.55;1.55;;;;;;;;;;5058054;28;20025;-89
2021/11/22 03:12:52;;;;;;;3.97;1.33;;;;;;;;;;5050288;28;20045;-88
2021/11/22 03:15:19;;;;;;;1.55;1.35;;;;;;;;;;5034115;28;20036;-89
2021/11/22 03:17:46;;;;;;;1.77;1.33;;;;;;;;;;5048633;28;20029;-89
2021/11/22 03:20:14;;;;;;;4.00;1.10;;;;;;;;;;5065148;28;20483;-89
2021/11/22 03:22:40;;;;;;;1.98;1.27;;;;;;;;;;5053558;28;20040;-88
2021/11/22 03:25:07;;;;;;;1.38;1.08;;;6.90;82.70;;;;;;5035519;28;20399;-89
2021/11/22 03:27:34;;;;;;;;;;;;;;;;;;5037796;28;20039;-89
2021/11/22 03:30:00;;;;;;;2.07;1.67;;;;;;;;;;5063624;28;19904;-89
2021/11/22 03:32:25;;;;;;;1.67;1.52;;;6.80;97.30;;;;;;5040463;28;20071;-89
2021/11/22 03:34:52;;;;;;;1.35;1.05;;;;;;;;;;5059596;28;20573;-89
2021/11/22 03:37:18;;;;;;;3.03;1.50;;;;;;;;;;5055348;28;20033;-89
2021/11/22 03:39:48;;;;;;;4.18;1.67;;;;;;;;;;5049371;28;20040;-87
2021/11/22 03:42:16;;;;;;;1.60;1.00;;;;;;;;;;5064519;28;20032;-90
2021/11/22 03:44:43;;;;;;;3.33;1.30;;;;;;;;;;5036605;28;20037;-89
2021/11/22 03:47:09;;;;;;;4.43;1.25;;;;;;;;;;5050414;28;20048;-90
2021/11/22 03:49:35;;;;;;;1.58;1.20;;;;;;;;;;5050615;28;20021;-88
2021/11/22 03:52:02;;;;;;;1.98;1.15;;;;;;;;;;5058450;28;20040;-89
2021/11/22 03:54:28;;;;;;;1.48;1.38;;;;;;;;;;5053905;28;20063;-89
2021/11/22 03:56:55;;;;;;;1.40;1.10;;;;;;;;;;5030024;28;20043;-89
2021/11/22 03:59:21;;;;;;;2.58;1.17;;;;;;;;;;5030206;28;20017;-89
2021/11/22 04:01:47;;;;;;;2.67;1.63;;;;;;;;;;5061541;28;20028;-89
2021/11/22 04:04:13;;;;;;;3.55;1.40;;;;;;;;;;5056890;28;20056;-89
2021/11/22 04:06:39;;;;;;;1.40;1.30;;;;;;;;;;5053058;28;20029;-87
2021/11/22 04:09:05;;;;;;;2.70;2.28;;;;;;;;;;5028499;28;20081;-89
2021/11/22 04:11:32;;;;;;;5.20;2.13;;;;;;;;;;5061299;28;20032;-87
2021/11/22 04:13:58;;;;;;;5.68;2.83;;;;;;;;;;5031812;28;20041;-88
2021/11/22 04:16:24;;;;;;;2.30;1.33;;;;;;;;;;5039671;28;20403;-87
2021/11/22 04:18:50;;;;;;;4.88;1.80;;;;;;;;;;5059389;28;20029;-89
2021/11/22 04:21:17;;;;;;;1.85;1.52;;;;;;;;;;5034514;28;20403;-90
2021/11/22 04:23:43;;;;;;;3.42;1.65;;;;;;;;;;5065032;28;20028;-88
2021/11/22 04:26:11;;;;;;;5.82;2.05;;;;;;;;;;5051559;28;20055;-89
2021/11/22 04:28:37;;;;;;;4.47;1.80;;;;;;;;;;5048871;28;20087;-87
2021/11/22 04:31:04;;;;;;;4.60;2.58;;;6.70;84.80;;;;;;5032967;28;20036;-89
2021/11/22 04:33:30;;;;;;;3.25;1.98;;;;;;;;;;5042827;28;20032;-88
2021/11/22 04:35:56;;;;;;;6.35;2.28;;;;;;;;;;5031392;28;20040;-88
2021/11/22 04:38:23;;;;;;;4.32;1.92;;;;;;;;;;5050398;28;20024;-89
2021/11/22 04:40:49;;;;;;;6.28;2.47;;;;;;;;;;5056712;28;20468;-90
2021/11/22 04:43:14;;;;;;;2.83;1.83;;;;;;;;;;5057230;28;20128;-87
2021/11/22 04:45:41;;;;;;;4.20;2.50;;;;;;;;;;5034293;28;20039;-88
2021/11/22 04:48:07;;;;;;;6.65;2.58;;;;;;;;;;5062070;28;20029;-89
2021/11/22 04:50:35;;;;;;;5.20;3.53;;;6.90;83.20;;;;;;5059739;28;20032;-89
2021/11/22 04:53:01;;;;;;;4.68;2.22;;;;;;;;;;5064351;28;20028;-89
2021/11/22 04:55:28;;;;;;;5.10;2.70;;;;;;;;;;5061591;28;20051;-88
2021/11/22 04:57:54;;;;;;;7.82;3.25;;;6.70;82.70;;;;;;5032232;28;20132;-88
2021/11/22 05:00:22;;;;;;;8.07;3.53;;;;;;;;;;5033903;28;20112;-88
2021/11/22 05:02:48;;;;;;;5.18;3.78;;;;;;;;;;5034014;28;20077;-88
2021/11/22 05:05:15;;;;;;;5.30;3.30;;;;;;;;;;5052933;28;20017;-89
2021/11/22 05:07:41;;;;;;;7.38;3.35;;;;;;;;;;5050697;28;20033;-89
2021/11/22 05:10:08;;;;;;;5.20;2.97;;;;;;;;;;5051349;28;20024;-89
2021/11/22 05:12:34;;;;;;;14.07;3.53;;;;;;;;;;5032827;28;20067;-88
2021/11/22 05:15:00;;;;;;;8.25;3.38;;;;;;;;;;5053740;28;20045;-88
2021/11/22 05:17:26;;;;;;;5.22;3.30;;;;;;;;;;5028963;28;20048;-90
2021/11/22 05:19:52;;;;;;;4.70;2.70;;;;;;;;;;5055243;28;20033;-87
2021/11/22 05:22:21;;;;;;;4.85;3.60;;;;;;;;;;5064531;28;20270;-88
2021/11/22 05:24:50;;;;;;;6.75;3.53;;;;;;;;;;5053357;28;20115;-90
2021/11/22 05:27:21;;;;;;;5.97;3.28;;;;;;;;;;5034660;28;26207;-89
2021/11/22 05:29:49;;;;;;;6.85;3.95;;;;;;;;;;5042528;28;21134;-88
2021/11/22 05:32:17;;;;;;;7.43;1.90;;;;;;;;;;5060347;28;20021;-89
2021/11/22 05:34:43;;;;;;;6.32;3.53;;;;;;;;;;5050656;28;20056;-88
2021/11/22 05:37:09;;;;;;;6.40;2.42;;;;;;;;;;5040045;28;20703;-88
2021/11/22 05:39:36;;;;;;;8.50;3.45;;;;;;;;;;5059946;28;20032;-89
2021/11/22 05:42:02;;;;;;;8.60;3.42;;;;;;;;;;5032769;28;20049;-89
2021/11/22 05:44:28;;;;;;;2.92;2.60;;;;;;;;;;5030257;28;20058;-88
2021/11/22 05:46:54;;;;;;;7.72;3.22;;;;;;;;;;5047280;28;20400;-91
2021/11/22 05:49:21;;;;;;;3.90;2.58;;;;;;;;;;5050804;28;20032;-89
2021/11/22 05:51:48;;;;;;;2.65;1.80;;;;;;;;;;5055258;28;20477;-89
2021/11/22 05:54:15;;;;;;;5.15;2.35;;;;;;;;;;5040786;28;20562;-88
2021/11/22 05:56:40;;;;;;;3.65;2.33;;;;;;;;;;5056159;28;20021;-93
2021/11/22 05:59:07;;;;;;;2.75;1.70;;;;;;;;;;5064750;28;20572;-89
2021/11/22 06:01:32;;;;;;;3.88;2.10;;;;;;;;;;5034578;28;20496;-88
2021/11/22 06:03:58;;;;;;;5.03;2.58;;;;;;;;;;5055526;28;20060;-89
2021/11/22 06:06:24;;;;;;;3.20;1.15;;;;;;;;;;5048330;28;20029;-88
2021/11/22 06:08:51;;;;;;;3.80;2.17;;;;;;;;;;5034041;28;20013;-89
2021/11/22 06:11:17;;;;;;;2.47;1.98;;;;;;;;;;5051037;28;20548;-89
2021/11/22 06:13:43;;;;;;;1.98;1.63;;;;;;;;;;5030428;28;20033;-89
2021/11/22 06:16:09;;;;;;;3.10;1.60;;;;;;;;;;5055836;28;20616;-90
2021/11/22 06:18:35;;;;;;;2.15;1.80;;;;;;;;;;5044851;28;20025;-90
2021/11/22 06:21:01;;;;;;;2.38;1.90;;;;;;;;;;5029503;28;20025;-89
2021/11/22 06:23:27;;;;;;;2.42;1.40;;;;;;;;;;5049646;28;20029;-89
2021/11/22 06:25:53;;;;;;;1.88;1.55;;;;;;;;;;5048679;28;20031;-91
2021/11/22 06:28:19;;;;;;;1.63;1.48;;;;;;;;;;5044403;28;20132;-90
2021/11/22 06:30:46;;;;;;;5.93;1.45;;;;;;;;;;5028911;28;20027;-93
2021/11/22 06:33:12;;;;;;;3.55;1.63;;;;;;;;;;5049227;28;20039;-91
2021/11/22 06:35:38;;;;;;;4.15;2.03;;;;;;;;;;5051190;28;20032;-92
2021/11/22 06:38:05;;;;;;;4.72;2.40;;;;;;;;;;5046399;28;20517;-91
2021/11/22 06:40:31;;;;;;;3.97;2.88;;;;;;;;;;5050881;28;20032;-92
2021/11/22 06:42:58;;;;;;;4.30;2.20;;;;;;;;;;5048063;28;20045;-92
2021/11/22 06:45:24;;;;;;;9.50;2.10;;;;;;;;;;5057652;28;20025;-91
2021/11/22 06:47:51;;;;;;;6.65;2.58;;;;;;;;;;5029606;28;20041;-92
2021/11/22 06:50:18;;;;;;;4.07;2.53;;;;;;;;;;5056372;28;20033;-91
2021/11/22 06:52:44;;;;;;;3.45;1.70;;;;;;;;;;5049888;28;20484;-92
2021/11/22 06:55:10;;;;;;;2.92;2.00;;;;;;;;;;5022557;28;20072;-92
2021/11/22 06:57:37;;;;;;;1.70;1.40;;;;;;;;;;5039741;28;20037;-91
2021/11/22 07:00:07;;;;;;;5.47;1.85;;;;;;;;;;5052071;28;20025;-92
2021/11/22 07:02:33;;;;;;;5.30;3.08;;;;;;;;;;5059889;28;20029;-91
2021/11/22 07:04:59;;;;;;;4.85;2.42;;;;;;;;;;5052033;28;20052;-90
2021/11/22 07:07:25;;;;;;;4.10;1.75;;;;;;;;;;5037702;28;20024;-92
2021/11/22 07:09:51;;;;;;;5.65;2.45;;;;;;;;;;5024190;28;20127;-92
2021/11/22 07:12:17;;;;;;;7.53;2.25;;;;;;;;;;5036765;28;20798;-92
2021/11/22 07:14:44;;;;;;;5.38;2.22;;;;;;;;;;5052598;28;20029;-92
2021/11/22 07:17:10;;;;;;;3.03;1.80;;;;;;;;;;5051355;28;20017;-91
2021/11/22 07:19:37;;;;;;;3.13;2.58;;;;;;;;;;5051346;28;20029;-90
2021/11/22 07:22:06;;;;;;;3.92;1.92;;;6.60;85.80;;;;;;5051513;28;20041;-90
2021/11/22 07:24:32;;;;;;;2.70;2.17;;;;;;;;;;5052231;28;20021;-90
2021/11/22 07:29:34;;;;;;;3.60;1.63;;;;;;;;;;5503858;23;20107;-95
2021/11/22 07:32:05;;;;;;;2.58;2.30;;;;;;;;;;5102495;23;20021;-95
2021/11/22 07:34:32;;;;;;;7.55;3.17;;;;;;;;;;5011020;28;20042;-94
2021/11/22 07:36:58;;;;;;;2.75;2.10;;;;;;;;;;4998942;28;20677;-92
2021/11/22 07:39:24;;;;;;;5.55;2.33;;;;;;;;;;4992479;28;20488;-93
2021/11/22 07:41:53;;;;;;;4.63;1.90;;;;;;;;;;4976185;28;20035;-93
2021/11/22 07:44:19;;;;;;;4.72;2.58;;;;;;;;;;5014023;28;20121;-92
2021/11/22 07:46:45;;;;;;;2.72;1.58;;;;;;;;;;4998872;28;20054;-92
2021/11/22 07:49:17;;;;;;;6.05;2.70;;;;;;;;;;4997042;28;20027;-96
2021/11/22 07:51:43;;;;;;;3.28;1.58;;;;;;;;;;4996968;28;20035;-92
2021/11/22 07:54:09;;;;;;;3.83;2.95;;;;;;;;;;4990563;28;20026;-95
2021/11/22 07:56:35;;;;;;;6.07;2.53;;;;;;;;;;4998179;28;20030;-93
2021/11/22 07:59:01;;;;;;;2.40;1.67;;;;;;;;;;5125886;23;20069;-90
2021/11/22 08:01:27;;;;;;;1.55;1.13;;;;;;;;;;5034817;28;20828;-90
2021/11/22 08:03:53;;;;;;;2.17;1.42;;;;;;;;;;5034773;28;20041;-92
2021/11/22 08:06:20;;;;;;;3.60;1.90;;;;;;;;;;5039076;28;20033;-95
2021/11/22 08:08:46;;;;;;;6.23;1.97;;;;;;;;;;5039395;28;20069;-94
2021/11/22 08:13:38;;;;;;;2.67;1.40;;;;;;;;;;5035412;28;20037;-92
2021/11/22 08:16:23;;;;;;;5.13;2.67;;;;;;;;;;5519832;23;20026;-95
2021/11/22 08:21:28;;;;;;;2.78;1.40;;;;;;;;;;5491302;23;20056;-96
2021/11/22 08:29:05;;;;;;;9.50;1.98;;;;;;;;;;5497018;23;20112;-95
2021/11/22 08:31:31;;;;;;;3.05;2.30;;;;;;;;;;5000328;28;20101;-92
2021/11/22 08:33:57;;;;;;;3.58;2.00;;;;;;;;;;4991129;28;20030;-91
2021/11/22 08:36:25;;;;;;;4.50;2.75;;;;;;;;;;4995192;28;20026;-93
2021/11/22 08:38:51;;;;;;;4.50;2.22;;;;;;;;;;4995410;28;20084;-91
2021/11/22 08:41:17;;;;;;;1.67;1.40;;;;;;;;;;4983550;28;20051;-93
2021/11/22 08:43:44;;;;;;;3.53;1.75;;;;;;;;;;4988987;28;20062;-92
2021/11/22 08:46:10;;;;;;;5.10;1.73;;;;;;;;;;5289417;23;20109;-92
2021/11/22 08:48:36;;;;;;;3.40;2.08;;;;;;;;;;4964113;28;20027;-91
2021/11/22 08:51:04;;;;;;;3.67;1.73;;;;;;;;;;4975198;28;20158;-89
2021/11/22 08:53:30;;;;;;;4.38;1.80;;;;;;;;;;4970676;28;20023;-92
2021/11/22 08:55:56;;;;;;;2.25;1.70;;;;;;;;;;4985776;28;20121;-89
2021/11/22 08:58:22;;;;;;;6.65;1.85;;;;;;;;;;4980939;28;20035;-90
2021/11/22 09:00:48;;;;;;;2.75;2.10;;;;;;;;;;4983650;28;20169;-90
2021/11/22 09:03:14;;;;;;;2.83;1.60;;;;;;;;;;5003060;28;20141;-91
2021/11/22 09:05:40;;;;;;;3.95;1.50;;;;;;;;;;4976967;28;20018;-89
2021/11/22 09:08:06;;;;;;;2.45;1.70;;;7.10;84.80;;;;;;4994557;28;20448;-90
2021/11/22 09:10:32;;;;;;;2.25;1.33;;;;;;;;;;4987219;28;20022;-91
2021/11/22 09:12:58;;;;;;;5.78;1.88;;;;;;;;;;4984047;28;20046;-89
2021/11/22 09:15:25;;;;;;;1.88;1.65;;;;;;;;;;4993720;28;20408;-89
2021/11/22 09:17:51;;;;;;;4.47;2.60;;;;;;;;;;4995102;28;20032;-92
2021/11/22 09:20:17;;;;;;;2.90;1.90;;;;;;;;;;4995011;28;20105;-94
2021/11/22 09:22:44;;;;;;;1.83;0.90;;;;;;;;;;4994446;28;20045;-92
2021/11/22 09:25:10;;;;;;;4.18;1.90;;;;;;;;;;5003351;28;20025;-94
2021/11/22 09:27:36;;;;;;;2.38;1.52;;;;;;;;;;4993873;28;20091;-92
2021/11/22 09:30:04;;;;;;;4.85;2.03;;;7.10;83.80;;;;;;5001198;28;20109;-93
2021/11/22 09:32:30;;;;;;;4.38;1.20;;;;;;;;;;4976599;28;20057;-92
2021/11/22 09:34:56;;;;;;;2.42;1.60;;;;;;;;;;4988515;28;20030;-92
2021/11/22 09:37:23;;;;;;;2.72;1.40;;;;;;;;;;4998177;28;20041;-95
2021/11/22 09:39:50;;;;;;;2.77;1.73;;;;;;;;;;4984137;28;20030;-91
2021/11/22 09:42:16;;;;;;;7.53;2.47;;;;;;;;;;4994211;28;20042;-93
2021/11/22 09:44:42;;;;;;;3.17;2.17;;;;;;;;;;4999475;28;20034;-92
2021/11/22 09:47:08;;;;;;;5.80;2.30;;;;;;;;;;5016158;28;20057;-92
2021/11/22 09:49:34;;;;;;;4.47;2.13;;;;;;;;;;5018570;28;20105;-91
2021/11/22 09:52:00;;;;;;;3.20;1.40;;;;;;;;;;5016097;28;20065;-92
2021/11/22 09:54:29;;;;;;;1.75;1.17;;;;;;;;;;5013195;28;20500;-95
2021/11/22 09:59:31;;;;;;;3.00;1.73;;;;;;;;;;5640288;23;20102;-93
2021/11/22 10:01:57;;;;;;;2.45;1.83;;;;;;;;;;4999366;28;20038;-94
2021/11/22 10:04:28;;;;;;;2.05;1.73;;;;;;;;;;5013991;28;20052;-94
2021/11/22 10:07:06;;;;;;;2.70;1.70;;;7.50;83.20;;;;;;5027663;28;20034;-96
2021/11/22 10:09:32;;;;;;;3.80;1.50;;;;;;;;;;5036781;28;20033;-94
2021/11/22 10:12:04;;;;;;;3.75;2.17;;;;;;;;;;5069497;23;20041;-94
2021/11/22 10:14:35;;;;;;;2.28;1.75;;;;;;;;;;5414508;23;20675;-93
2021/11/22 10:17:01;;;;;;;2.90;2.13;;;;;;;;;;5020055;28;20022;-95
2021/11/22 10:19:27;;;;;;;2.40;2.15;;;;;;;;;;5020509;28;20036;-93
2021/11/22 10:21:53;;;;;;;2.45;1.70;;;;;;;;;;5012039;28;20025;-94
2021/11/22 10:24:19;;;;;;;3.05;2.03;;;;;;;;;;5000697;28;20030;-94
2021/11/22 10:26:51;;;;;;;5.68;2.20;;;;;;;;;;5012979;28;20084;-94
2021/11/22 10:29:27;;;;;;;2.55;1.45;;;7.70;84.00;;;;;;5012579;28;20049;-94
2021/11/22 10:31:58;;;;;;;5.25;1.98;;;7.60;84.40;;;;;;5007244;28;20036;-95
2021/11/22 10:34:24;;;;;;;4.47;1.67;;;;;;;;;;5009385;28;20388;-95
2021/11/22 10:37:01;;;;;;;3.03;1.60;;;;;;;;;;5002216;28;20053;-94
2021/11/22 10:39:27;;;;;;;5.40;2.60;;;;;;;;;;5011181;28;20065;-94
2021/11/22 10:41:54;;;;;;;3.15;1.90;;;;;;;;;;5002429;28;20034;-94
2021/11/22 10:44:20;;;;;;;4.32;2.13;;;;;;;;;;5007744;28;20054;-95
2021/11/22 10:46:53;;;;;;;8.52;2.50;;;;;;;;;;5009272;28;20041;-94
2021/11/22 10:49:29;;;;;;;3.95;2.50;;;;;;;;;;5011985;28;20026;-93
2021/11/22 10:52:16;;;;;;;7.38;3.00;;;7.70;85.50;;;;;;5009064;28;20034;-94
2021/11/22 10:54:59;;;;;;;5.68;2.08;;;7.50;85.70;;;;;;4983087;28;20121;-92
2021/11/22 10:57:37;;;;;;;4.22;2.15;;;;;;;;;;4993111;28;20037;-92
2021/11/22 11:00:21;;;;;;;4.63;1.98;;;7.50;86.40;;;;;;4996442;28;20068;-93
2021/11/22 11:02:48;;;;;;;4.82;2.53;;;7.50;86.20;;;;;;5012329;28;20033;-94
2021/11/22 11:05:31;;;;;;;3.08;2.20;;;;;;;;;;5017365;28;20026;-92
2021/11/22 11:08:07;;;;;;;4.22;2.38;;;;;;;;;;5012951;28;20033;-94
2021/11/22 11:10:33;;;;;;;7.85;3.72;;;;;;;;;;4995224;28;20053;-95
2021/11/22 11:13:00;;;;;;;3.38;1.98;;;;;;;;;;5012354;28;20030;-94
2021/11/22 11:15:26;;;;;;;3.80;1.92;;;;;;;;;;4997786;28;20045;-94
2021/11/22 11:17:52;;;;;;;3.92;2.53;;;;;;;;;;4993501;28;20117;-94
2021/11/22 11:20:20;;;;;;;3.90;2.65;;;7.70;85.80;;;;;;5010655;28;20026;-94
2021/11/22 11:22:47;;;;;;;4.57;2.15;;;;;;;;;;4981535;28;20125;-95
2021/11/22 11:25:14;;;;;;;5.57;2.90;;;7.70;85.70;;;;;;5004021;28;20022;-94
2021/11/22 11:27:43;;;;;;;7.30;2.88;;;;;;;;;;4987050;28;20039;-94
2021/11/22 11:30:10;;;;;;;4.93;2.47;;;;;;;;;;4991715;28;20026;-94
2021/11/22 11:32:36;;;;;;;9.85;3.30;;;;;;;;;;5005730;28;20056;-93
2021/11/22 11:35:05;;;;;;;2.50;2.30;;;;;;;;;;5006978;28;20038;-94
2021/11/22 11:37:34;;;;;;;10.60;3.22;;;;;;;;;;4988384;28;20180;-93
2021/11/22 11:40:03;;;;;;;5.85;2.13;;;;;;;;;;5011647;28;20058;-93
2021/11/22 11:42:35;;;;;;;4.07;2.88;;;;;;;;;;5010088;28;20049;-93
2021/11/22 11:45:23;;;;;;;4.40;2.40;;;;;;;;;;4994225;28;20169;-93
2021/11/22 11:47:55;;;;;;;9.00;3.17;;;;;;;;;;4993514;28;20270;-93
2021/11/22 11:50:24;;;;;;;4.15;2.40;;;;;;;;;;4981894;28;20398;-93
2021/11/22 11:52:58;;;;;;;5.33;2.43;;;;;;;;;;5492649;23;1356856;-93
2021/11/22 11:55:24;;;;;;;11.82;3.70;;;;;;;;;;5047843;28;20072;-94
2021/11/22 12:00:27;;;;;;;6.60;2.22;;;;;;;;;;5542414;23;20057;-92
2021/11/22 12:03:00;;;;;;;4.15;2.40;;;;;;;;;;5025671;28;20089;-95
2021/11/22 12:05:47;;;;;;;8.85;3.15;;;;;;;;;;5018058;28;20133;-93
2021/11/22 12:08:24;;;;;;;3.80;1.98;;;7.80;86.60;;;;;;5017565;28;20084;-93
2021/11/22 12:10:50;;;;;;;5.60;3.65;;;;;;;;;;5011463;28;20076;-92
2021/11/22 12:13:17;;;;;;;4.97;3.00;;;;;;;;;;5031903;28;20029;-93
2021/11/22 12:15:49;;;;;;;10.82;2.65;;;;;;;;;;5030753;28;20083;-94
2021/11/22 12:18:31;;;;;;;8.98;3.53;;;7.80;86.30;;;;;;5015518;28;20116;-93
2021/11/22 12:21:06;;;;;;;5.82;2.38;;;;;;;;;;5029848;28;20408;-93
2021/11/22 12:23:45;;;;;;;7.40;3.47;;;;;;;;;;5008066;28;20037;-92
2021/11/22 12:26:13;;;;;;;12.75;4.93;;;;;;;;;;5028287;28;20037;-93
2021/11/22 12:28:39;;;;;;;6.55;3.63;;;;;;;;;;5031135;28;20566;-94
2021/11/22 12:31:09;;;;;;;8.25;2.72;;;;;;;;;;5032446;28;20029;-92
2021/11/22 12:33:45;;;;;;;6.60;2.97;;;;;;;;;;5020100;28;20495;-93
2021/11/22 12:36:11;;;;;;;8.15;3.78;;;;;;;;;;5034128;28;20044;-92
2021/11/22 12:38:40;;;;;;;12.13;4.28;;;;;;;;;;5029405;28;20045;-94
2021/11/22 12:41:31;;;;;;;10.13;3.50;;;7.80;86.80;;;;;;5034706;28;20825;-93
2021/11/22 12:43:58;;;;;;;7.75;2.80;;;;;;;;;;5034058;28;20033;-93
2021/11/22 12:46:51;;;;;;;9.68;4.40;;;7.60;87.50;;;;;;5034273;28;20022;-93
2021/11/22 12:49:48;;;;;;;6.55;2.35;;;7.70;87.30;;;;;;5014108;28;20137;-93
2021/11/22 12:52:25;;;;;;;7.18;3.67;;;7.70;87.40;;;;;;5025784;28;20029;-93
2021/11/22 12:54:57;;;;;;;10.30;2.88;;;;;;;;;;5034868;28;20040;-95
2021/11/22 12:57:26;;;;;;;11.48;4.97;;;;;;;;;;5034596;28;20022;-94
2021/11/22 13:00:34;;;;;;;9.05;4.25;;;7.80;87.60;;;;;;5032981;28;20474;-93
2021/11/22 13:03:01;;;;;;;7.80;3.92;;;;;;;;;;5014479;28;20069;-93
2021/11/22 13:05:48;;;;;;;16.60;5.32;;;;;;;;;;5014834;28;20100;-93
2021/11/22 13:08:17;;;;;;;6.38;3.83;;;7.60;99.00;;;;;;4998250;28;20030;-93
2021/11/22 13:10:57;;;;;;;8.02;3.85;;;7.50;88.20;;;;;;5008894;28;20469;-92
2021/11/22 13:13:40;;;;;;;8.40;4.35;;;;;;;;;;5014674;28;20113;-95
2021/11/22 13:16:12;;;;;;;8.15;4.00;;;7.60;88.30;;;;;;5003267;28;20061;-93
2021/11/22 13:18:42;;;;;;;5.93;3.50;;;7.50;88.30;;;;;;5002396;28;20751;-94
2021/11/22 13:21:14;;;;;;;6.30;4.03;;;7.60;88.30;;;;;;5013665;28;20805;-92
2021/11/22 13:23:41;;;;;;;9.52;4.22;;;;;;;;;;5011398;28;20081;-91
2021/11/22 13:26:18;;;;;;;9.30;4.10;;;;;;;;;;5002473;28;20056;-93
2021/11/22 13:29:21;;;;;;;6.85;4.15;;;7.70;88.80;;;;;;5007729;28;20038;-93
2021/11/22 13:31:48;;;;;;;7.95;3.70;;;;;;;;;;4930352;29;20047;-93
2021/11/22 13:34:18;;;;;;;10.80;3.70;;;7.80;88.40;;;;;;4917386;29;20561;-92
2021/11/22 13:36:50;;;;;;;10.57;4.20;;;7.80;87.70;;;;;;4930318;29;20027;-93
2021/11/22 13:39:28;;;;;;;7.93;3.55;;;7.80;88.30;;;;;;4917011;29;20094;-94
2021/11/22 13:41:53;;;;;;;;;;;7.90;88.20;;;;;;4900365;29;20044;-93
2021/11/22 13:57:18;;;;;;;8.00;3.63;;;;;;;;;;5185498;23;20078;-92
2021/11/22 13:59:49;;;;;;;8.48;3.88;;;;;;;;;;4980022;28;20023;-92
2021/11/22 14:02:16;;;;;;;8.13;4.03;;;;;;;;;;4981981;28;20053;-94
2021/11/22 14:04:44;;;;;;;8.90;3.92;;;8.00;87.80;;;;;;4975917;28;20073;-92
2021/11/22 14:07:10;;;;;;;12.45;5.55;;;;;;;;;;4977068;28;20038;-94
2021/11/22 14:09:36;;;;;;;10.63;4.70;;;;;;;;;;4986126;28;20037;-94
2021/11/22 14:12:05;;;;;;;9.95;5.30;;;;;;;;;;4974019;28;20105;-94
2021/11/22 14:14:32;;;;;;;7.03;3.53;;;;;;;;;;4976708;28;20033;-95
2021/11/22 14:16:59;;;;;;;15.88;4.50;;;;;;;;;;4977247;28;20040;-93
2021/11/22 14:19:26;;;;;;;11.90;4.90;;;;;;;;;;4975320;28;20493;-92
2021/11/22 14:21:53;;;;;;;11.07;4.95;;;7.80;88.50;;;;;;4977373;28;20497;-93
2021/11/22 14:24:25;;;;;;;11.77;6.07;;;7.80;88.80;;;;;;4972526;28;20119;-93
2021/11/22 14:26:53;;;;;;;10.05;3.88;;;;;;;;;;4956897;28;20050;-93
2021/11/22 14:29:24;;;;;;;;;;;7.80;89.10;;;;;;4977692;28;20095;-93
2021/11/22 14:36:57;;;;;;;11.50;4.68;;;;;;;;;;4990978;28;20047;-90
2021/11/22 14:39:34;;;;;;;6.65;3.60;;;;;;;;;;4992512;28;20037;-91
2021/11/22 14:42:11;;;;;;;9.45;3.38;;;7.70;90.10;;;;;;4990278;28;20100;-90
2021/11/22 14:44:53;;;;;;;5.97;4.63;;;;;;;;;;4992759;28;20030;-90
2021/11/22 14:47:34;;;;;;;10.80;4.35;;;7.60;90.30;;;;;;4986823;28;20038;-90
2021/11/22 14:50:23;;;;;;;11.43;5.28;;;7.60;90.10;;;;;;4975245;28;20050;-90
2021/11/22 14:53:08;;;;;;;6.35;3.53;;;7.60;90.10;;;;;;4973584;28;20037;-90
2021/11/22 14:55:34;;;;;;;9.10;4.57;;;;;;;;;;4993087;28;20030;-89
2021/11/22 14:58:01;;;;;;;6.65;3.33;;;;;;;;;;4992755;28;20014;-91
2021/11/22 15:00:38;;;;;;;10.77;4.63;;;7.80;90.00;;;;;;4992433;28;20069;-90
2021/11/22 15:03:24;;;;;;;10.30;4.00;;;;;;;;;;4994819;28;20034;-91
2021/11/22 15:05:50;;;;;;;12.63;4.50;;;;;;;;;;4992603;28;20030;-90
2021/11/22 15:08:27;;;;;;;8.43;4.53;;;7.70;89.10;;;;;;4993989;28;20030;-92
2021/11/22 15:10:56;;;;;;;11.20;4.35;;;7.60;89.10;;;;;;4992988;28;20022;-92